Time;durP1;ratioP1;P1;durP2;ratioP2;P2;SDS_P1;SDS_P2;PMS_P1;PMS_P2;Temp;Humidity;BMP_temperature;BMP_pressure;BME280_temperature;BME280_humidity;BME280_pressure;Samples;Min_cycle;Max_cycle;Signal;HPM_P1;HPM_P2
2022/03/08 00:02:01;;;;;;;15.60;9.65;;;;;;;2.41;79.82;102447.28;5054359;28;20557;-73
2022/03/08 00:04:27;;;;;;;15.80;9.65;;;;;;;2.39;80.20;102450.53;5059545;28;20020;-73
2022/03/08 00:06:54;;;;;;;14.93;9.50;;;;;;;2.35;80.70;102446.84;5065920;28;20033;-73
2022/03/08 00:09:19;;;;;;;14.15;10.15;;;;;;;2.33;80.05;102446.72;5060478;28;20429;-73
2022/03/08 00:11:45;;;;;;;14.60;8.98;;;;;;;2.32;80.75;102441.38;5052229;28;20032;-73
2022/03/08 00:14:10;;;;;;;16.00;9.18;;;;;;;2.32;80.04;102444.91;5076882;28;20465;-73
2022/03/08 00:16:35;;;;;;;15.38;8.80;;;;;;;2.31;79.65;102439.59;5061284;28;20023;-73
2022/03/08 00:19:01;;;;;;;13.52;9.77;;;;;;;2.27;79.51;102438.44;5066337;28;20496;-72
2022/03/08 00:21:26;;;;;;;15.40;9.55;;;;;;;2.26;79.99;102434.03;5066941;28;20059;-73
2022/03/08 00:23:51;;;;;;;17.40;10.18;;;;;;;2.23;80.20;102431.22;5064649;28;20033;-73
2022/03/08 00:26:16;;;;;;;14.00;8.98;;;;;;;2.20;79.51;102425.78;5050978;28;20545;-72
2022/03/08 00:28:42;;;;;;;12.18;8.40;;;;;;;2.16;79.82;102413.38;5063476;28;20028;-72
2022/03/08 00:31:07;;;;;;;13.85;8.80;;;;;;;2.19;79.83;102419.69;5063327;28;20108;-72
2022/03/08 00:33:33;;;;;;;14.60;9.23;;;;;;;2.16;79.77;102428.94;5060370;28;20412;-73
2022/03/08 00:35:58;;;;;;;19.48;8.82;;;;;;;2.14;79.72;102425.31;5054826;28;20365;-73
2022/03/08 00:38:24;;;;;;;12.32;8.65;;;;;;;2.13;79.99;102423.50;5069426;28;20028;-73
2022/03/08 00:40:50;;;;;;;18.02;8.25;;;;;;;2.13;79.71;102420.91;5065676;28;20027;-73
2022/03/08 00:43:16;;;;;;;13.07;8.15;;;;;;;2.12;79.72;102416.53;5040788;28;20016;-73
2022/03/08 00:45:41;;;;;;;15.50;8.23;;;;;;;2.09;79.66;102417.19;5050604;28;20024;-74
2022/03/08 00:48:07;;;;;;;16.42;9.30;;;;;;;2.07;79.63;102417.84;5056360;28;20025;-72
2022/03/08 00:50:32;;;;;;;12.95;8.20;;;;;;;2.01;80.36;102418.28;5068765;28;20027;-72
2022/03/08 00:52:58;;;;;;;13.30;9.15;;;;;;;2.04;79.36;102407.25;5041624;28;20049;-71
2022/03/08 00:55:26;;;;;;;17.90;8.77;;;;;;;2.02;80.13;102414.88;5058593;28;20051;-72
2022/03/08 00:57:52;;;;;;;16.90;10.02;;;;;;;2.01;79.29;102416.59;5064526;28;20343;-72
2022/03/08 01:00:19;;;;;;;15.95;9.65;;;;;;;1.97;79.88;102418.84;5066836;28;20029;-72
2022/03/08 01:02:45;;;;;;;13.05;9.10;;;;;;;1.94;80.27;102416.91;5053409;28;20052;-72
2022/03/08 01:05:11;;;;;;;13.73;8.48;;;;;;;1.87;80.73;102418.91;5068175;28;20036;-72
2022/03/08 01:07:37;;;;;;;13.50;9.02;;;;;;;1.81;81.90;102419.34;5066144;28;20033;-72
2022/03/08 01:10:05;;;;;;;13.32;9.32;;;;;;;1.79;81.37;102410.53;5060701;28;20485;-72
2022/03/08 01:12:31;;;;;;;18.40;9.52;;;;;;;1.77;80.73;102412.09;5062298;28;20532;-72
2022/03/08 01:14:56;;;;;;;14.45;9.05;;;;;;;1.76;80.44;102405.09;5038535;28;20116;-71
2022/03/08 01:17:22;;;;;;;11.75;8.40;;;;;;;1.75;80.45;102405.88;5067298;28;20107;-72
2022/03/08 01:19:50;;;;;;;16.52;9.60;;;;;;;1.75;81.11;102409.41;5054423;28;20028;-72
2022/03/08 01:22:16;;;;;;;14.02;8.60;;;;;;;1.68;81.50;102407.09;5057689;28;20039;-73
2022/03/08 01:24:41;;;;;;;13.48;8.80;;;;;;;1.65;81.35;102407.75;5062111;28;20028;-73
2022/03/08 01:27:06;;;;;;;13.48;9.32;;;;;;;1.63;81.83;102404.16;5043786;28;20690;-72
2022/03/08 01:29:32;;;;;;;17.65;9.40;;;;;;;1.59;82.26;102396.91;5062385;28;20453;-72
2022/03/08 01:31:57;;;;;;;12.88;8.75;;;;;;;1.55;82.47;102402.66;5061047;28;20021;-72
2022/03/08 01:34:23;;;;;;;13.48;8.68;;;;;;;1.50;83.16;102397.09;5058789;28;20029;-72
2022/03/08 01:36:48;;;;;;;15.60;9.00;;;;;;;1.48;83.05;102400.38;5040068;28;20063;-72
2022/03/08 01:39:14;;;;;;;11.60;8.13;;;;;;;1.48;82.44;102401.25;5054255;28;20451;-72
2022/03/08 01:41:39;;;;;;;15.10;8.10;;;;;;;1.51;81.21;102398.91;5068047;28;20037;-72
2022/03/08 01:44:08;;;;;;;13.52;8.20;;;;;;;1.52;81.02;102400.72;5062941;28;20031;-72
2022/03/08 01:46:34;;;;;;;15.20;8.98;;;;;;;1.52;80.27;102390.34;5070627;28;20025;-73
2022/03/08 01:48:59;;;;;;;11.70;7.10;;;;;;;1.53;80.68;102383.44;5047962;28;20021;-72
2022/03/08 01:51:24;;;;;;;11.32;6.82;;;;;;;1.53;79.58;102380.84;5054809;28;20086;-72
2022/03/08 01:53:50;;;;;;;14.40;7.63;;;;;;;1.54;78.69;102374.00;5063807;28;20077;-72
2022/03/08 01:56:15;;;;;;;12.40;7.07;;;;;;;1.55;79.15;102374.13;5052737;28;20021;-72
2022/03/08 01:58:41;;;;;;;12.68;7.43;;;;;;;1.57;78.12;102367.34;5064180;28;20035;-72
2022/03/08 02:01:07;;;;;;;9.23;7.13;;;;;;;1.62;77.16;102360.81;5044913;28;20484;-73
2022/03/08 02:03:33;;;;;;;14.43;6.88;;;;;;;1.62;76.77;102355.63;5053293;28;20059;-73
2022/03/08 02:05:58;;;;;;;8.95;6.88;;;;;;;1.64;75.76;102343.69;5042780;28;20035;-73
2022/03/08 02:08:25;;;;;;;10.60;6.97;;;;;;;1.66;75.40;102347.28;5053749;28;20029;-72
2022/03/08 02:10:51;;;;;;;12.68;6.88;;;;;;;1.71;74.95;102333.78;5046268;28;20115;-72
2022/03/08 02:13:19;;;;;;;11.50;7.03;;;;;;;1.75;73.98;102336.75;5059789;28;20445;-72
2022/03/08 02:15:49;;;;;;;11.90;6.70;;;;;;;1.75;73.45;102330.63;5058744;28;20373;-72
2022/03/08 02:18:15;;;;;;;11.77;5.57;;;;;;;1.76;72.60;102322.06;5055691;28;20033;-73
2022/03/08 02:20:40;;;;;;;10.63;6.05;;;;;;;1.77;72.76;102329.06;5066617;28;20017;-73
2022/03/08 02:23:05;;;;;;;10.57;5.97;;;;;;;1.76;72.28;102311.69;5045248;28;20442;-73
2022/03/08 02:25:31;;;;;;;9.52;5.65;;;;;;;1.77;72.94;102321.28;5066408;28;20024;-72
2022/03/08 02:27:56;;;;;;;8.73;6.20;;;;;;;1.71;73.61;102316.53;5052905;28;20437;-73
2022/03/08 02:30:23;;;;;;;14.25;7.53;;;;;;;1.68;73.08;102317.19;5035943;28;20048;-73
2022/03/08 02:32:49;;;;;;;11.60;7.10;;;;;;;1.66;73.96;102313.56;5061583;28;20025;-73
2022/03/08 02:35:17;;;;;;;11.88;6.00;;;;;;;1.63;73.60;102315.03;5061727;28;20516;-73
2022/03/08 02:37:48;;;;;;;9.43;6.45;;;;;;;1.60;73.88;102307.00;5068832;28;20503;-73
2022/03/08 02:40:16;;;;;;;14.95;7.20;;;;;;;1.56;74.54;102313.66;5055045;28;20533;-73
2022/03/08 02:42:42;;;;;;;9.30;6.53;;;;;;;1.53;73.85;102313.41;5057908;28;20032;-73
2022/03/08 02:45:09;;;;;;;10.50;6.43;;;;;;;1.48;74.40;102309.59;5063202;28;20045;-73
2022/03/08 02:47:35;;;;;;;11.30;6.22;;;;;;;1.48;73.64;102304.41;5059025;28;20025;-72
2022/03/08 02:50:00;;;;;;;11.60;6.57;;;;;;;1.49;73.19;102303.59;5058366;28;20086;-72
2022/03/08 02:52:25;;;;;;;10.00;6.43;;;;;;;1.46;73.79;102303.34;5060563;28;20064;-72
2022/03/08 02:54:51;;;;;;;10.75;6.18;;;;;;;1.41;73.73;102302.09;5051419;28;20048;-71
2022/03/08 02:57:16;;;;;;;7.90;5.35;;;;;;;1.39;73.43;102299.38;5050676;28;20030;-72
2022/03/08 02:59:42;;;;;;;16.65;6.70;;;;;;;1.35;73.92;102286.97;5042075;28;20017;-71
2022/03/08 03:02:07;;;;;;;12.55;6.57;;;;;;;1.34;74.22;102291.25;5057966;28;20094;-72
2022/03/08 03:04:32;;;;;;;8.15;6.00;;;;;;;1.29;73.80;102292.59;5063669;28;20047;-72
2022/03/08 03:06:58;;;;;;;9.30;5.95;;;;;;;1.28;74.14;102295.06;5067374;28;20531;-72
2022/03/08 03:09:24;;;;;;;11.02;5.88;;;;;;;1.24;73.86;102291.31;5061020;28;20051;-73
2022/03/08 03:11:49;;;;;;;9.32;6.30;;;;;;;1.23;74.05;102286.91;5064639;28;20387;-72
2022/03/08 03:14:14;;;;;;;8.40;6.03;;;;;;;1.21;73.84;102285.91;5072955;28;20473;-73
2022/03/08 03:16:40;;;;;;;9.70;5.75;;;;;;;1.21;74.19;102272.00;5047406;28;20013;-73
2022/03/08 03:19:05;;;;;;;10.27;5.72;;;;;;;1.20;74.19;102284.09;5059242;28;20029;-73
2022/03/08 03:21:30;;;;;;;9.48;6.32;;;;;;;1.16;74.93;102274.25;5070248;28;20043;-73
2022/03/08 03:23:56;;;;;;;9.68;6.10;;;;;;;1.14;74.02;102266.38;5057831;28;20028;-72
2022/03/08 03:26:21;;;;;;;8.40;5.85;;;;;;;1.12;73.60;102257.56;5054855;28;20028;-73
2022/03/08 03:28:47;;;;;;;10.68;6.53;;;;;;;1.11;74.18;102265.22;5056690;28;20381;-73
2022/03/08 03:31:12;;;;;;;9.68;5.80;;;;;;;1.08;73.47;102255.50;5040198;28;20032;-73
2022/03/08 03:33:38;;;;;;;7.70;5.38;;;;;;;1.09;73.28;102259.91;5062890;28;20082;-72
2022/03/08 03:36:03;;;;;;;11.00;5.90;;;;;;;1.09;73.10;102248.66;5064809;28;20063;-72
2022/03/08 03:38:29;;;;;;;9.45;5.43;;;;;;;1.09;73.25;102246.97;5072628;28;20431;-73
2022/03/08 03:40:54;;;;;;;8.73;5.75;;;;;;;1.09;72.93;102248.66;5053598;28;20017;-73
2022/03/08 03:43:19;;;;;;;13.07;5.82;;;;;;;1.09;73.38;102246.06;5049036;28;20035;-73
2022/03/08 03:45:44;;;;;;;9.27;5.50;;;;;;;1.06;73.76;102256.16;5056239;28;20449;-73
2022/03/08 03:48:10;;;;;;;9.20;5.85;;;;;;;1.03;73.74;102259.44;5060886;28;20098;-72
2022/03/08 03:50:35;;;;;;;10.05;5.57;;;;;;;0.95;74.47;102261.44;5050818;28;20024;-73
2022/03/08 03:53:00;;;;;;;10.70;5.22;;;;;;;0.94;74.46;102263.91;5062532;28;20045;-72
2022/03/08 03:55:26;;;;;;;9.27;6.05;;;;;;;0.88;74.91;102258.25;5060087;28;20055;-72
2022/03/08 03:57:51;;;;;;;9.48;6.30;;;;;;;0.83;75.92;102263.06;5072497;28;20058;-73
2022/03/08 04:00:17;;;;;;;12.73;6.28;;;;;;;0.82;76.79;102271.63;5058099;28;20071;-74
2022/03/08 04:02:43;;;;;;;10.85;6.22;;;;;;;0.75;76.39;102259.88;5052306;28;20476;-73
2022/03/08 04:05:09;;;;;;;10.80;6.13;;;;;;;0.73;76.05;102260.53;5060801;28;20036;-73
2022/03/08 04:07:35;;;;;;;8.63;6.25;;;;;;;0.71;76.28;102256.94;5056305;28;20126;-73
2022/03/08 04:10:01;;;;;;;8.90;6.13;;;;;;;0.71;75.86;102263.00;5073057;28;20060;-73
2022/03/08 04:12:28;;;;;;;9.02;5.93;;;;;;;0.72;75.56;102266.47;5062028;28;20032;-73
2022/03/08 04:14:54;;;;;;;8.27;5.40;;;;;;;0.72;76.21;102253.53;5042411;28;20025;-73
2022/03/08 04:17:19;;;;;;;9.93;5.95;;;;;;;0.71;75.87;102256.94;5068197;28;20020;-73
2022/03/08 04:19:44;;;;;;;10.85;6.28;;;;;;;0.66;76.26;102254.88;5055653;28;20380;-73
2022/03/08 04:22:10;;;;;;;9.60;5.70;;;;;;;0.68;76.60;102247.22;5066501;28;20032;-73
2022/03/08 04:24:35;;;;;;;9.10;6.20;;;;;;;0.65;76.66;102247.88;5049432;28;20491;-72
2022/03/08 04:27:01;;;;;;;7.78;5.63;;;;;;;0.61;76.46;102250.09;5049096;28;20568;-73
2022/03/08 04:29:27;;;;;;;9.48;5.93;;;;;;;0.58;77.22;102252.44;5049417;28;20028;-74
2022/03/08 04:31:52;;;;;;;10.75;6.68;;;;;;;0.57;77.18;102258.38;5064508;28;20025;-73
2022/03/08 04:34:18;;;;;;;9.63;5.88;;;;;;;0.52;76.66;102249.34;5046664;28;20447;-73
2022/03/08 04:36:43;;;;;;;10.18;6.38;;;;;;;0.50;77.40;102244.03;5062553;28;20115;-73
2022/03/08 04:39:09;;;;;;;8.85;6.53;;;;;;;0.50;77.72;102244.03;5048339;28;20108;-73
2022/03/08 04:41:34;;;;;;;8.65;6.07;;;;;;;0.48;78.09;102243.94;5061808;28;20407;-73
2022/03/08 04:43:59;;;;;;;10.38;6.20;;;;;;;0.49;78.14;102247.44;5060657;28;20052;-73
2022/03/08 04:46:25;;;;;;;10.20;6.13;;;;;;;0.51;77.40;102245.88;5059789;28;20060;-73
2022/03/08 04:48:50;;;;;;;10.65;7.20;;;;;;;0.50;76.70;102251.81;5070401;28;20032;-73
2022/03/08 04:51:15;;;;;;;9.20;5.88;;;;;;;0.50;77.07;102244.03;5054033;28;20026;-73
2022/03/08 04:53:42;;;;;;;9.35;6.18;;;;;;;0.50;76.66;102241.47;5040152;28;20020;-73
2022/03/08 04:56:07;;;;;;;7.15;5.35;;;;;;;0.48;76.53;102235.28;5071220;28;20103;-73
2022/03/08 04:58:33;;;;;;;7.57;5.65;;;;;;;0.50;76.84;102241.47;5049493;28;20049;-73
2022/03/08 05:00:58;;;;;;;9.45;5.97;;;;;;;0.48;76.95;102243.94;5065512;28;20063;-73
2022/03/08 05:03:24;;;;;;;11.07;7.13;;;;;;;0.46;77.51;102234.22;5067589;28;20064;-73
2022/03/08 05:05:49;;;;;;;9.38;6.53;;;;;;;0.42;77.61;102238.28;5064661;28;20119;-73
2022/03/08 05:08:14;;;;;;;9.85;6.38;;;;;;;0.39;77.25;102237.13;5061169;28;20033;-73
2022/03/08 05:10:40;;;;;;;8.95;6.60;;;;;;;0.33;77.48;102235.84;5050825;28;20560;-73
2022/03/08 05:13:06;;;;;;;11.95;6.28;;;;;;;0.31;77.64;102229.66;5059699;28;20489;-72
2022/03/08 05:15:31;;;;;;;8.80;5.88;;;;;;;0.30;77.43;102233.00;5059906;28;20013;-73
2022/03/08 05:17:56;;;;;;;9.40;6.30;;;;;;;0.30;77.61;102235.59;5050177;28;20384;-73
2022/03/08 05:20:22;;;;;;;9.05;6.10;;;;;;;0.28;77.88;102229.38;5067010;28;20056;-73
2022/03/08 05:22:47;;;;;;;10.43;6.05;;;;;;;0.28;77.92;102237.16;5055045;28;20783;-73
2022/03/08 05:25:13;;;;;;;9.65;6.35;;;;;;;0.26;77.58;102232.63;5053714;28;20037;-73
2022/03/08 05:27:39;;;;;;;10.02;6.25;;;;;;;0.27;77.48;102231.84;5065240;28;20492;-73
2022/03/08 05:30:05;;;;;;;12.23;6.63;;;;;;;0.29;76.81;102222.53;5063539;28;20060;-73
2022/03/08 05:32:31;;;;;;;9.10;6.25;;;;;;;0.30;77.23;102224.34;5044877;28;20027;-73
2022/03/08 05:34:56;;;;;;;9.20;6.40;;;;;;;0.27;77.52;102225.00;5063821;28;20020;-73
2022/03/08 05:37:22;;;;;;;9.48;5.82;;;;;;;0.27;77.76;102225.00;5040581;28;20040;-73
2022/03/08 05:39:47;;;;;;;8.98;6.47;;;;;;;0.26;77.69;102215.41;5054927;28;20547;-73
2022/03/08 05:42:13;;;;;;;8.20;5.97;;;;;;;0.28;77.41;102213.84;5067684;28;20028;-73
2022/03/08 05:44:39;;;;;;;10.23;6.35;;;;;;;0.24;77.93;102209.19;5063839;28;20064;-73
2022/03/08 05:47:05;;;;;;;11.52;6.20;;;;;;;0.25;77.73;102198.06;5035535;28;20468;-73
2022/03/08 05:49:30;;;;;;;11.60;6.75;;;;;;;0.27;77.13;102196.53;5046349;28;20024;-73
2022/03/08 05:51:56;;;;;;;10.45;6.40;;;;;;;0.28;76.82;102197.41;5059829;28;20057;-73
2022/03/08 05:54:21;;;;;;;12.38;6.20;;;;;;;0.30;76.42;102196.75;5060315;28;20024;-73
2022/03/08 05:56:46;;;;;;;9.30;5.85;;;;;;;0.36;76.16;102190.28;5063519;28;20442;-73
2022/03/08 05:59:12;;;;;;;9.68;6.25;;;;;;;0.37;76.23;102192.06;5048090;28;20025;-73
2022/03/08 06:01:37;;;;;;;9.15;6.13;;;;;;;0.35;76.15;102193.63;5047898;28;20452;-73
2022/03/08 06:04:02;;;;;;;9.77;6.15;;;;;;;0.38;76.33;102196.47;5063010;28;20106;-73
2022/03/08 06:06:28;;;;;;;11.23;6.38;;;;;;;0.39;75.94;102195.69;5061073;28;20051;-73
2022/03/08 06:08:53;;;;;;;10.18;6.45;;;;;;;0.40;75.86;102197.50;5066051;28;20024;-72
2022/03/08 06:11:18;;;;;;;16.17;6.97;;;;;;;0.43;75.58;102189.97;5057151;28;20095;-73
2022/03/08 06:13:44;;;;;;;12.15;5.95;;;;;;;0.45;75.37;102197.06;5057194;28;20024;-74
2022/03/08 06:16:10;;;;;;;9.50;6.10;;;;;;;0.47;75.63;102194.59;5070568;28;20029;-73
2022/03/08 06:18:35;;;;;;;11.50;6.22;;;;;;;0.45;75.99;102194.50;5054970;28;20051;-72
2022/03/08 06:21:01;;;;;;;9.68;6.47;;;;;;;0.45;75.31;102199.66;5045697;28;20031;-81
2022/03/08 06:23:26;;;;;;;11.00;6.97;;;;;;;0.47;75.34;102197.19;5062314;28;20033;-74
2022/03/08 06:25:51;;;;;;;14.38;6.47;;;;;;;0.49;75.44;102203.41;5070467;28;20028;-73
2022/03/08 06:28:20;;;;;;;17.08;7.30;;;;;;;0.48;75.72;102201.59;5057975;28;20021;-71
2022/03/08 06:30:45;;;;;;;10.55;6.97;;;;;;;0.47;75.45;102205.84;5059735;28;20036;-70
2022/03/08 06:33:10;;;;;;;13.88;6.45;;;;;;;0.48;75.37;102199.00;5067410;28;20021;-71
2022/03/08 06:35:36;;;;;;;11.85;6.65;;;;;;;0.50;75.37;102205.19;5050288;28;20032;-81
2022/03/08 06:38:01;;;;;;;10.73;6.53;;;;;;;0.53;75.25;102205.47;5055779;28;20055;-70
2022/03/08 06:40:27;;;;;;;10.50;6.68;;;;;;;0.57;75.11;102204.94;5072803;28;20376;-71
2022/03/08 06:42:52;;;;;;;14.48;6.60;;;;;;;0.57;75.48;102207.50;5072011;28;20025;-69
2022/03/08 06:45:17;;;;;;;9.43;6.40;;;;;;;0.59;75.25;102213.69;5069023;28;20029;-70
2022/03/08 06:47:43;;;;;;;10.85;6.82;;;;;;;0.62;74.61;102211.34;5069955;28;20166;-71
2022/03/08 06:50:09;;;;;;;9.88;6.90;;;;;;;0.65;75.27;102215.88;5061583;28;20027;-72
2022/03/08 06:52:34;;;;;;;10.80;7.57;;;;;;;0.67;74.43;102222.97;5060422;28;20108;-71
2022/03/08 06:54:59;;;;;;;13.90;7.20;;;;;;;0.69;74.86;102219.63;5066922;28;20381;-71
2022/03/08 06:57:25;;;;;;;10.15;6.50;;;;;;;0.70;74.76;102216.25;5066097;28;20100;-72
2022/03/08 06:59:50;;;;;;;10.80;6.53;;;;;;;0.71;74.94;102212.88;5068319;28;20025;-74
2022/03/08 07:02:16;;;;;;;11.18;7.03;;;;;;;0.73;74.75;102208.72;5049372;28;20029;-74
2022/03/08 07:04:41;;;;;;;10.85;6.65;;;;;;;0.78;74.43;102221.22;5068249;28;20025;-74
2022/03/08 07:07:06;;;;;;;10.98;6.05;;;;;;;0.81;74.11;102212.81;5069137;28;20453;-73
2022/03/08 07:09:32;;;;;;;9.32;6.38;;;;;;;0.86;73.96;102213.19;5071593;28;20033;-73
2022/03/08 07:11:59;;;;;;;38.80;8.38;;;;;;;0.90;73.65;102208.34;5057397;28;20059;-73
2022/03/08 07:14:24;;;;;;;40.22;9.25;;;;;;;0.95;73.11;102207.03;5073773;28;20055;-75
2022/03/08 07:16:50;;;;;;;14.90;6.70;;;;;;;0.99;73.68;102203.88;5071584;28;20443;-74
2022/03/08 07:19:16;;;;;;;8.73;6.00;;;;;;;1.05;73.84;102207.72;5072703;28;20103;-73
2022/03/08 07:21:42;;;;;;;11.45;6.75;;;;;;;1.09;73.28;102202.00;5069112;28;20035;-78
2022/03/08 07:24:10;;;;;;;10.70;6.22;;;;;;;1.12;72.91;102200.53;5052392;28;20024;-80
2022/03/08 07:26:35;;;;;;;9.57;6.15;;;;;;;1.15;72.58;102197.25;5078230;28;20024;-79
2022/03/08 07:29:00;;;;;;;13.10;6.47;;;;;;;1.18;72.61;102200.09;5074918;28;20021;-79
2022/03/08 07:31:26;;;;;;;9.13;6.00;;;;;;;1.25;72.10;102199.78;5071644;28;20033;-80
2022/03/08 07:33:51;;;;;;;10.63;6.38;;;;;;;1.33;71.81;102190.91;5063583;28;20071;-80
2022/03/08 07:36:18;;;;;;;9.93;6.30;;;;;;;1.38;71.74;102206.78;5078670;28;20019;-79
2022/03/08 07:38:43;;;;;;;13.30;6.50;;;;;;;1.46;70.94;102195.31;5057258;28;20473;-78
2022/03/08 07:41:08;;;;;;;10.05;6.35;;;;;;;1.50;70.93;102196.44;5072056;28;20035;-80
2022/03/08 07:43:34;;;;;;;11.43;8.35;;;;;;;1.52;70.70;102202.66;5059821;28;20028;-79
2022/03/08 07:46:03;;;;;;;11.25;6.72;;;;;;;1.57;70.34;102206.50;5052611;28;20075;-79
2022/03/08 07:48:28;;;;;;;10.73;6.55;;;;;;;1.63;70.36;102204.38;5051208;28;20031;-80
2022/03/08 07:50:53;;;;;;;13.82;6.80;;;;;;;1.66;70.51;102207.19;5076763;28;20155;-80
2022/03/08 07:53:19;;;;;;;12.10;6.65;;;;;;;1.71;70.04;102201.44;5055514;28;20044;-80
2022/03/08 07:55:44;;;;;;;9.85;6.28;;;;;;;1.74;70.26;102207.75;5075627;28;20020;-80
2022/03/08 07:58:12;;;;;;;8.65;6.43;;;;;;;1.78;70.38;102211.50;5059051;28;20025;-79
2022/03/08 08:00:39;;;;;;;10.25;6.90;;;;;;;1.83;70.19;102211.06;5043731;28;20021;-79
2022/03/08 08:03:05;;;;;;;11.45;6.90;;;;;;;1.87;70.10;102217.34;5067570;28;20107;-80
2022/03/08 08:05:33;;;;;;;63.15;13.65;;;;;;;1.89;70.39;102212.31;5073988;28;20094;-79
2022/03/08 08:07:59;;;;;;;8.70;6.28;;;;;;;1.95;70.48;102216.22;5051815;28;20583;-79
2022/03/08 08:10:24;;;;;;;10.15;6.50;;;;;;;2.03;69.05;102216.78;5068499;28;20036;-79
2022/03/08 08:12:50;;;;;;;9.98;6.88;;;;;;;2.09;69.06;102216.34;5079766;28;20444;-79
2022/03/08 08:15:15;;;;;;;8.75;6.55;;;;;;;2.17;67.75;102220.38;5042390;28;20573;-80
2022/03/08 08:17:41;;;;;;;11.68;6.40;;;;;;;2.24;67.37;102217.47;5031995;28;20449;-80
2022/03/08 08:20:08;;;;;;;11.98;6.72;;;;;;;2.32;66.58;102221.53;5042439;28;20095;-79
2022/03/08 08:22:33;;;;;;;8.55;6.22;;;;;;;2.39;66.74;102225.47;5046752;28;20031;-80
2022/03/08 08:24:59;;;;;;;10.52;6.80;;;;;;;2.44;66.91;102223.19;5046129;28;20033;-80
2022/03/08 08:27:24;;;;;;;8.57;6.60;;;;;;;2.49;66.26;102221.81;5041254;28;20040;-80
2022/03/08 08:29:50;;;;;;;8.18;6.03;;;;;;;2.52;65.92;102230.75;5057540;28;20044;-79
2022/03/08 08:32:15;;;;;;;12.32;7.10;;;;;;;2.59;66.11;102225.97;5050384;28;20035;-79
2022/03/08 08:34:40;;;;;;;8.98;6.43;;;;;;;2.60;65.54;102220.00;5078865;28;20484;-79
2022/03/08 08:37:07;;;;;;;9.00;6.47;;;;;;;2.67;65.66;102211.81;5064472;28;20024;-78
2022/03/08 08:39:32;;;;;;;12.73;6.47;;;;;;;2.72;65.51;102222.56;5058658;28;20385;-79
2022/03/08 08:41:58;;;;;;;7.82;6.10;;;;;;;2.77;65.55;102215.97;5054395;28;20029;-79
2022/03/08 08:44:26;;;;;;;10.93;6.70;;;;;;;2.83;64.89;102206.91;5041091;28;20120;-79
2022/03/08 08:46:52;;;;;;;10.02;6.75;;;;;;;2.88;65.44;102217.66;5043438;28;20032;-79
2022/03/08 08:49:17;;;;;;;20.80;7.25;;;;;;;2.94;64.61;102202.47;5041430;28;20400;-79
2022/03/08 08:51:43;;;;;;;15.38;7.25;;;;;;;3.02;64.83;102195.19;5039218;28;20044;-80
2022/03/08 08:54:08;;;;;;;15.32;7.28;;;;;;;3.10;64.71;102190.53;5040826;28;20516;-79
2022/03/08 08:56:35;;;;;;;10.70;6.55;;;;;;;3.19;64.75;102192.06;5038828;28;20032;-79
2022/03/08 08:59:05;;;;;;;9.23;5.95;;;;;;;3.29;63.70;102185.78;5045566;28;20385;-78
2022/03/08 09:01:32;;;;;;;45.95;9.45;;;;;;;3.37;63.99;102181.09;5021284;28;20041;-79
2022/03/08 09:03:57;;;;;;;13.35;6.28;;;;;;;3.48;62.38;102182.72;5044219;28;20087;-78
2022/03/08 09:06:23;;;;;;;12.38;6.50;;;;;;;3.63;63.77;102182.84;5020413;28;20029;-79
2022/03/08 09:08:48;;;;;;;13.88;6.78;;;;;;;3.86;62.01;102175.66;5031675;28;20035;-79
2022/03/08 09:11:13;;;;;;;13.32;6.20;;;;;;;4.05;61.28;102178.63;5040144;28;20036;-78
2022/03/08 09:13:39;;;;;;;8.48;6.60;;;;;;;4.17;62.10;102175.03;5034407;28;20029;-79
2022/03/08 09:16:05;;;;;;;11.70;8.15;;;;;;;4.38;60.58;102179.00;5037236;28;20041;-79
2022/03/08 09:18:31;;;;;;;14.02;6.90;;;;;;;4.54;58.58;102164.31;5026515;28;20473;-79
2022/03/08 09:20:56;;;;;;;11.38;7.18;;;;;;;4.71;58.08;102168.88;5017899;28;20033;-80
2022/03/08 09:23:22;;;;;;;9.70;6.88;;;;;;;4.94;58.80;102165.88;5019154;28;20017;-79
2022/03/08 09:25:47;;;;;;;16.77;6.93;;;;;;;5.17;57.68;102167.28;5049784;28;20032;-79
2022/03/08 09:28:13;;;;;;;10.88;6.55;;;;;;;5.37;57.38;102166.75;5036686;28;20031;-81
2022/03/08 09:30:38;;;;;;;12.23;6.25;;;;;;;5.61;55.59;102163.75;5014980;28;20059;-78
2022/03/08 09:33:04;;;;;;;15.68;6.65;;;;;;;5.74;55.78;102161.06;5033746;28;20645;-80
2022/03/08 09:35:30;;;;;;;10.35;6.28;;;;;;;6.02;53.86;102162.69;5034584;28;20067;-79
2022/03/08 09:37:56;;;;;;;19.35;7.43;;;;;;;6.20;52.04;102161.88;5053072;28;20037;-79
2022/03/08 09:40:23;;;;;;;14.10;6.90;;;;;;;6.44;51.89;102154.50;5049069;28;20420;-79
2022/03/08 09:42:49;;;;;;;13.68;6.28;;;;;;;6.68;50.86;102151.41;5050018;28;20385;-79
2022/03/08 09:45:17;;;;;;;13.25;6.55;;;;;;;7.00;50.29;102154.81;5035922;28;20037;-79
2022/03/08 09:47:43;;;;;;;17.85;6.82;;;;;;;7.36;48.69;102150.59;5046441;28;20027;-79
2022/03/08 09:50:11;;;;;;;58.03;8.13;;;;;;;7.69;47.16;102145.25;5046381;28;20456;-79
2022/03/08 09:52:39;;;;;;;13.30;6.28;;;;;;;7.60;47.83;102144.81;5047250;28;20097;-78
2022/03/08 09:55:06;;;;;;;18.45;6.78;;;;;;;7.86;45.98;102139.94;5057176;28;20032;-79
2022/03/08 09:57:32;;;;;;;18.80;9.07;;;;;;;7.90;45.10;102129.66;5056368;28;20033;-79
2022/03/08 09:59:58;;;;;;;11.57;6.15;;;;;;;7.90;44.16;102123.53;5056352;28;20027;-79
2022/03/08 10:02:23;;;;;;;12.65;6.22;;;;;;;7.80;44.48;102126.53;5053399;28;20464;-80
2022/03/08 10:05:03;;;;;;;12.85;6.00;;;;;;;7.63;43.80;102128.34;5058810;28;20032;-79
2022/03/08 10:07:29;;;;;;;13.32;5.88;;;;;;;7.57;43.67;102123.69;5071042;28;20119;-78
2022/03/08 10:09:58;;;;;;;19.40;6.60;;;;;;;7.62;43.85;102130.03;5078256;28;20056;-77
2022/03/08 10:12:25;;;;;;;7.68;5.63;;;;;;;7.67;44.12;102123.31;5066875;28;20384;-78
2022/03/08 10:14:51;;;;;;;8.48;5.63;;;;;;;7.95;44.83;102119.44;5054409;28;20017;-80
2022/03/08 10:17:37;;;;;;;7.93;5.40;;;;;;;8.18;44.48;102114.34;5063389;28;20110;-81
2022/03/08 10:20:05;;;;;;;17.08;5.75;;;;;;;8.49;44.04;102115.81;5039665;28;20120;-82
2022/03/08 10:22:32;;;;;;;9.07;5.72;;;;;;;8.46;42.77;102110.44;5063090;28;20020;-82
2022/03/08 10:25:22;;;;;;;14.45;6.00;;;;;;;8.35;43.25;102110.78;5060489;28;20059;-82
2022/03/08 10:27:54;;;;;;;11.52;6.20;;;;;;;8.47;42.77;102099.13;5064717;28;20032;-82
2022/03/08 10:30:21;;;;;;;20.58;6.03;;;;;;;8.65;43.22;102101.66;5074881;28;20112;-81
2022/03/08 10:32:48;;;;;;;13.30;6.20;;;;;;;8.94;42.94;102105.59;5065047;28;20039;-82
2022/03/08 10:35:23;;;;;;;7.45;5.75;;;;;;;9.17;41.89;102103.03;5040557;28;20095;-81
2022/03/08 10:37:48;;;;;;;9.32;5.82;;;;;;;9.09;41.09;102085.22;5073258;28;20033;-81
2022/03/08 10:40:22;;;;;;;10.02;5.30;;;;;;;9.18;40.41;102084.72;5060199;28;20740;-84
2022/03/08 10:43:00;;;;;;;8.23;5.75;;;;;;;9.26;41.11;102082.41;5072787;28;20039;-82
2022/03/08 10:45:28;;;;;;;6.63;5.38;;;;;;;9.60;40.66;102075.91;5062279;28;20488;-82
2022/03/08 10:47:54;;;;;;;10.82;6.10;;;;;;;9.81;41.63;102078.53;5075093;28;20027;-81
2022/03/08 10:50:26;;;;;;;10.77;5.43;;;;;;;10.02;38.75;102060.03;5045412;28;20044;-82
2022/03/08 10:52:55;;;;;;;9.70;6.40;;;;;;;9.69;38.94;102067.53;5056634;28;20119;-82
2022/03/08 10:55:25;;;;;;;6.07;5.47;;;;;;;9.91;39.41;102064.00;5073938;28;20024;-82
2022/03/08 10:57:54;;;;;;;7.93;5.45;;;;;;;10.05;38.27;102060.19;5065664;28;20504;-82
2022/03/08 11:00:29;;;;;;;13.40;5.60;;;;;;;10.36;36.84;102058.72;5064947;28;20031;-83
2022/03/08 11:02:55;;;;;;;11.15;5.68;;;;;;;10.46;36.66;102045.06;5029529;28;20507;-73
2022/03/08 11:05:26;;;;;;;9.63;5.13;;;;;;;10.25;36.21;102050.38;5060237;28;20108;-71
2022/03/08 11:07:52;;;;;;;7.82;5.78;;;;;;;10.39;36.08;102043.06;5053912;28;20132;-72
2022/03/08 11:10:19;;;;;;;6.07;5.35;;;;;;;10.26;35.79;102040.78;5068895;28;20024;-72
2022/03/08 11:12:45;;;;;;;7.47;5.53;;;;;;;10.38;36.23;102043.00;5062979;28;20032;-72
2022/03/08 11:15:13;;;;;;;8.13;5.30;;;;;;;10.51;36.09;102039.97;5056599;28;20091;-71
2022/03/08 11:17:42;;;;;;;19.45;5.97;;;;;;;10.89;35.07;102040.44;5059742;28;20068;-72
2022/03/08 11:20:11;;;;;;;10.48;5.28;;;;;;;11.06;35.56;102035.72;5060505;28;20032;-72
2022/03/08 11:22:38;;;;;;;7.45;5.25;;;;;;;11.62;34.67;102034.91;5063571;28;20035;-72